EWG2J EDDH-ESSA
Flight info
| Callsign | EWG2J |
|---|---|
| Flight time | 1h 12m |
| Altitude | 39000 |
| Route | LUGEG3G LUGEG P605 MEGAR DCT BEDOS N851 PELUP Z226 NILUG |
| Aircraft | A20N/M-SDE2E3FGHIRWXY/LB1 |
Departure
| Time | 2026-04-23 15:33 |
|---|---|
| Airport | Hamburg Helmut Schmidt Airport (EDDH) |
Arrival
| Time | 2026-04-23 16:45 |
|---|---|
| Airport | Stockholm-Arlanda Airport (ESSA) |
| Time | Latitude | Longitude | Altitude | Speed | Heading |
|---|---|---|---|---|---|
| 2026-04-23 15:09 | 53.62841 | 10.00206 | 44 ft | 0 kts | 62° |
| 2026-04-23 15:26 | 53.62838 | 10.00196 | 44 ft | 4 kts | 61° |
| 2026-04-23 15:27 | 53.62824 | 10.00158 | 41 ft | 4 kts | 51° |
| 2026-04-23 15:27 | 53.62805 | 10.00127 | 42 ft | 4 kts | 24° |
| 2026-04-23 15:27 | 53.62786 | 10.00123 | 40 ft | 1 kts | 333° |
| 2026-04-23 15:27 | 53.62782 | 10.00126 | 40 ft | 0 kts | 333° |
| 2026-04-23 15:30 | 53.62783 | 10.00125 | 40 ft | 1 kts | 333° |
| 2026-04-23 15:30 | 53.62813 | 10.00099 | 44 ft | 9 kts | 333° |
| 2026-04-23 15:31 | 53.62852 | 9.99993 | 45 ft | 13 kts | 253° |
| 2026-04-23 15:31 | 53.62823 | 9.99900 | 46 ft | 12 kts | 244° |
| 2026-04-23 15:31 | 53.62843 | 9.99752 | 46 ft | 14 kts | 325° |
| 2026-04-23 15:31 | 53.62889 | 9.99725 | 47 ft | 0 kts | 339° |
| 2026-04-23 15:32 | 53.63095 | 9.99541 | 48 ft | 75 kts | 332° |
| 2026-04-23 15:32 | 53.63748 | 9.98976 | 46 ft | 133 kts | 333° |
| 2026-04-23 15:33 | 53.64672 | 9.98185 | 316 ft | 150 kts | 333° |
| 2026-04-23 15:33 | 53.65597 | 9.97397 | 925 ft | 150 kts | 332° |
| 2026-04-23 15:33 | 53.66548 | 9.96578 | 1470 ft | 159 kts | 332° |
| 2026-04-23 15:33 | 53.67596 | 9.95664 | 1839 ft | 179 kts | 332° |
| 2026-04-23 15:34 | 53.68795 | 9.94830 | 2413 ft | 194 kts | 347° |
| 2026-04-23 15:34 | 53.70192 | 9.94649 | 2924 ft | 214 kts | 2° |
| 2026-04-23 15:34 | 53.71699 | 9.94797 | 3835 ft | 217 kts | 2° |
| 2026-04-23 15:34 | 53.73164 | 9.95368 | 4872 ft | 219 kts | 30° |
| 2026-04-23 15:35 | 53.74242 | 9.97195 | 5747 ft | 228 kts | 61° |
| 2026-04-23 15:35 | 53.74960 | 9.99708 | 6400 ft | 247 kts | 65° |
| 2026-04-23 15:35 | 53.75691 | 10.02432 | 7148 ft | 261 kts | 66° |
| 2026-04-23 15:35 | 53.76449 | 10.05290 | 7991 ft | 271 kts | 63° |
| 2026-04-23 15:36 | 53.77578 | 10.07938 | 8706 ft | 284 kts | 43° |
| 2026-04-23 15:36 | 53.79145 | 10.09991 | 9649 ft | 288 kts | 32° |
| 2026-04-23 15:36 | 53.80867 | 10.11794 | 10502 ft | 298 kts | 31° |
| 2026-04-23 15:36 | 53.82672 | 10.13682 | 10909 ft | 321 kts | 32° |
| 2026-04-23 15:37 | 53.84599 | 10.15837 | 11348 ft | 340 kts | 34° |
| 2026-04-23 15:37 | 53.86552 | 10.18148 | 12191 ft | 345 kts | 35° |
| 2026-04-23 15:37 | 53.88512 | 10.20532 | 13050 ft | 349 kts | 36° |
| 2026-04-23 15:37 | 53.90489 | 10.22965 | 13875 ft | 353 kts | 36° |
| 2026-04-23 15:38 | 53.92490 | 10.25436 | 14681 ft | 358 kts | 36° |
| 2026-04-23 15:38 | 53.94514 | 10.27937 | 15456 ft | 362 kts | 36° |
| 2026-04-23 15:38 | 53.96561 | 10.30469 | 16222 ft | 366 kts | 36° |
| 2026-04-23 15:38 | 53.98633 | 10.33032 | 16949 ft | 370 kts | 36° |
| 2026-04-23 15:39 | 54.00726 | 10.35623 | 17670 ft | 375 kts | 36° |
| 2026-04-23 15:39 | 54.02841 | 10.38245 | 18363 ft | 379 kts | 36° |
| 2026-04-23 15:39 | 54.04980 | 10.40901 | 19040 ft | 382 kts | 36° |
| 2026-04-23 15:39 | 54.07140 | 10.43588 | 19709 ft | 386 kts | 36° |
| 2026-04-23 15:40 | 54.09319 | 10.46303 | 20354 ft | 390 kts | 36° |
| 2026-04-23 15:40 | 54.11518 | 10.49046 | 20974 ft | 394 kts | 36° |
| 2026-04-23 15:40 | 54.13741 | 10.51823 | 21597 ft | 398 kts | 36° |
| 2026-04-23 15:40 | 54.15980 | 10.54625 | 22186 ft | 401 kts | 36° |
| 2026-04-23 15:41 | 54.18242 | 10.57459 | 22785 ft | 405 kts | 36° |
| 2026-04-23 15:41 | 54.20525 | 10.60323 | 23347 ft | 409 kts | 36° |
| 2026-04-23 15:41 | 54.22825 | 10.63213 | 23910 ft | 412 kts | 36° |
| 2026-04-23 15:41 | 54.25142 | 10.66129 | 24448 ft | 416 kts | 36° |
| 2026-04-23 15:42 | 54.27479 | 10.69073 | 24971 ft | 419 kts | 36° |
| 2026-04-23 15:42 | 54.29833 | 10.72044 | 25477 ft | 422 kts | 36° |
| 2026-04-23 15:42 | 54.32205 | 10.75042 | 25974 ft | 425 kts | 36° |
| 2026-04-23 15:42 | 54.34594 | 10.78065 | 26441 ft | 428 kts | 36° |
| 2026-04-23 15:43 | 54.36999 | 10.81113 | 26893 ft | 431 kts | 36° |
| 2026-04-23 15:43 | 54.39422 | 10.84188 | 27331 ft | 434 kts | 36° |
| 2026-04-23 15:43 | 54.41858 | 10.87286 | 27752 ft | 437 kts | 36° |
| 2026-04-23 15:43 | 54.44309 | 10.90407 | 28144 ft | 440 kts | 36° |
| 2026-04-23 15:44 | 54.46777 | 10.93553 | 28540 ft | 443 kts | 36° |
| 2026-04-23 15:44 | 54.49254 | 10.96717 | 28914 ft | 445 kts | 36° |
| 2026-04-23 15:44 | 54.51747 | 10.99906 | 29273 ft | 448 kts | 36° |
| 2026-04-23 15:44 | 54.54220 | 11.03073 | 29615 ft | 450 kts | 36° |
| 2026-04-23 15:45 | 54.56774 | 11.06350 | 29965 ft | 453 kts | 36° |
| 2026-04-23 15:45 | 54.59305 | 11.09604 | 30309 ft | 455 kts | 36° |
| 2026-04-23 15:45 | 54.61815 | 11.12834 | 30645 ft | 458 kts | 37° |
| 2026-04-23 15:45 | 54.64371 | 11.16130 | 30982 ft | 460 kts | 37° |
| 2026-04-23 15:46 | 54.66936 | 11.19442 | 31363 ft | 461 kts | 37° |
| 2026-04-23 15:46 | 54.69500 | 11.22759 | 31804 ft | 460 kts | 37° |
| 2026-04-23 15:46 | 54.72061 | 11.26076 | 32234 ft | 459 kts | 37° |
| 2026-04-23 15:46 | 54.74608 | 11.29382 | 32655 ft | 458 kts | 37° |
| 2026-04-23 15:47 | 54.77156 | 11.32693 | 33059 ft | 457 kts | 37° |
| 2026-04-23 15:47 | 54.79699 | 11.36004 | 33449 ft | 457 kts | 37° |
| 2026-04-23 15:47 | 54.82234 | 11.39309 | 33827 ft | 456 kts | 37° |
| 2026-04-23 15:47 | 54.84761 | 11.42610 | 34191 ft | 455 kts | 37° |
| 2026-04-23 15:48 | 54.87286 | 11.45912 | 34545 ft | 454 kts | 37° |
| 2026-04-23 15:48 | 54.89806 | 11.49215 | 34885 ft | 453 kts | 37° |
| 2026-04-23 15:48 | 54.92323 | 11.52518 | 35213 ft | 453 kts | 37° |
| 2026-04-23 15:48 | 54.94836 | 11.55821 | 35528 ft | 452 kts | 37° |
| 2026-04-23 15:49 | 54.97341 | 11.59119 | 35824 ft | 451 kts | 37° |
| 2026-04-23 15:49 | 54.99839 | 11.62413 | 36116 ft | 451 kts | 37° |
| 2026-04-23 15:49 | 55.02338 | 11.65714 | 36384 ft | 451 kts | 37° |
| 2026-04-23 15:49 | 55.04838 | 11.69021 | 36631 ft | 451 kts | 37° |
| 2026-04-23 15:50 | 55.07329 | 11.72322 | 36867 ft | 451 kts | 37° |
| 2026-04-23 15:50 | 55.09829 | 11.75639 | 37107 ft | 451 kts | 37° |
| 2026-04-23 15:50 | 55.12320 | 11.78951 | 37325 ft | 451 kts | 37° |
| 2026-04-23 15:50 | 55.14815 | 11.82273 | 37543 ft | 451 kts | 37° |
| 2026-04-23 15:51 | 55.17309 | 11.85599 | 37751 ft | 451 kts | 37° |
| 2026-04-23 15:51 | 55.19797 | 11.88922 | 37945 ft | 451 kts | 37° |
| 2026-04-23 15:51 | 55.22291 | 11.92259 | 38147 ft | 451 kts | 37° |
| 2026-04-23 15:51 | 55.24783 | 11.95598 | 38315 ft | 451 kts | 37° |
| 2026-04-23 15:52 | 55.27277 | 11.98946 | 38507 ft | 451 kts | 37° |
| 2026-04-23 15:52 | 55.29763 | 12.02288 | 38695 ft | 451 kts | 37° |
| 2026-04-23 15:52 | 55.32221 | 12.05598 | 38865 ft | 451 kts | 37° |
| 2026-04-23 15:52 | 55.34705 | 12.08948 | 38992 ft | 451 kts | 37° |
| 2026-04-23 15:53 | 55.37190 | 12.12306 | 38996 ft | 450 kts | 37° |
| 2026-04-23 15:53 | 55.42148 | 12.19020 | 38997 ft | 449 kts | 37° |
| 2026-04-23 15:54 | 55.47129 | 12.25788 | 39005 ft | 449 kts | 37° |
| 2026-04-23 15:54 | 55.52081 | 12.32537 | 39004 ft | 449 kts | 37° |
| 2026-04-23 15:55 | 55.56990 | 12.39250 | 38996 ft | 449 kts | 37° |
| 2026-04-23 15:55 | 55.61932 | 12.46032 | 38999 ft | 449 kts | 38° |
| 2026-04-23 15:56 | 55.66868 | 12.52826 | 38996 ft | 450 kts | 38° |
| 2026-04-23 15:56 | 55.71801 | 12.59639 | 39004 ft | 450 kts | 38° |
| 2026-04-23 15:57 | 55.76730 | 12.66469 | 38999 ft | 450 kts | 38° |
| 2026-04-23 15:57 | 55.81658 | 12.73320 | 38996 ft | 450 kts | 38° |
| 2026-04-23 15:58 | 55.86582 | 12.80187 | 39000 ft | 450 kts | 38° |
| 2026-04-23 15:58 | 55.91499 | 12.87069 | 38999 ft | 450 kts | 38° |
| 2026-04-23 15:59 | 55.96413 | 12.93967 | 38997 ft | 450 kts | 38° |
| 2026-04-23 15:59 | 56.01328 | 13.00892 | 38999 ft | 450 kts | 38° |
| 2026-04-23 16:00 | 56.06234 | 13.07827 | 38999 ft | 450 kts | 38° |
| 2026-04-23 16:00 | 56.11140 | 13.14784 | 38992 ft | 450 kts | 38° |
| 2026-04-23 16:01 | 56.16040 | 13.21757 | 38993 ft | 450 kts | 38° |
| 2026-04-23 16:01 | 56.20940 | 13.28753 | 39004 ft | 450 kts | 38° |
| 2026-04-23 16:02 | 56.25826 | 13.35753 | 38993 ft | 450 kts | 38° |
| 2026-04-23 16:02 | 56.30724 | 13.42792 | 38994 ft | 450 kts | 38° |
| 2026-04-23 16:03 | 56.35617 | 13.49849 | 39006 ft | 450 kts | 38° |
| 2026-04-23 16:03 | 56.40503 | 13.56920 | 39000 ft | 450 kts | 38° |
| 2026-04-23 16:04 | 56.45355 | 13.63965 | 39008 ft | 450 kts | 38° |
| 2026-04-23 16:04 | 56.50233 | 13.71073 | 38996 ft | 450 kts | 39° |
| 2026-04-23 16:05 | 56.54320 | 13.77045 | 38998 ft | 451 kts | 39° |
| 2026-04-23 16:05 | 56.59986 | 13.85355 | 38998 ft | 451 kts | 39° |
| 2026-04-23 16:06 | 56.64855 | 13.92522 | 39005 ft | 451 kts | 39° |
| 2026-04-23 16:06 | 56.69722 | 13.99711 | 38998 ft | 451 kts | 39° |
| 2026-04-23 16:07 | 56.74584 | 14.06917 | 39006 ft | 451 kts | 39° |
| 2026-04-23 16:07 | 56.79442 | 14.14141 | 38999 ft | 451 kts | 39° |
| 2026-04-23 16:08 | 56.84296 | 14.21386 | 39005 ft | 451 kts | 39° |
| 2026-04-23 16:08 | 56.89085 | 14.28777 | 39004 ft | 450 kts | 43° |
| 2026-04-23 16:09 | 56.92918 | 14.35228 | 38995 ft | 450 kts | 42° |
| 2026-04-23 16:09 | 56.97527 | 14.43011 | 38992 ft | 450 kts | 43° |
| 2026-04-23 16:10 | 57.02087 | 14.50897 | 38994 ft | 451 kts | 43° |
| 2026-04-23 16:10 | 57.06628 | 14.58836 | 38995 ft | 451 kts | 43° |
| 2026-04-23 16:11 | 57.11162 | 14.66797 | 38999 ft | 451 kts | 43° |
| 2026-04-23 16:11 | 57.15691 | 14.74776 | 38997 ft | 451 kts | 44° |
| 2026-04-23 16:12 | 57.20221 | 14.82786 | 38999 ft | 451 kts | 44° |
| 2026-04-23 16:12 | 57.24745 | 14.90812 | 39001 ft | 451 kts | 44° |
| 2026-04-23 16:13 | 57.29262 | 14.98856 | 38998 ft | 451 kts | 44° |
| 2026-04-23 16:13 | 57.36031 | 15.10965 | 39004 ft | 451 kts | 44° |
| 2026-04-23 16:14 | 57.40540 | 15.19066 | 39003 ft | 451 kts | 44° |
| 2026-04-23 16:14 | 57.45045 | 15.27190 | 39001 ft | 452 kts | 44° |
| 2026-04-23 16:15 | 57.49546 | 15.35337 | 39008 ft | 452 kts | 44° |
| 2026-04-23 16:15 | 57.54042 | 15.43503 | 39010 ft | 452 kts | 44° |
| 2026-04-23 16:16 | 57.58529 | 15.51684 | 39010 ft | 452 kts | 44° |
| 2026-04-23 16:16 | 57.63012 | 15.59885 | 39000 ft | 451 kts | 44° |
| 2026-04-23 16:17 | 57.67492 | 15.68114 | 39001 ft | 451 kts | 44° |
| 2026-04-23 16:17 | 57.71934 | 15.76302 | 38998 ft | 451 kts | 44° |
| 2026-04-23 16:18 | 57.76431 | 15.84621 | 39002 ft | 451 kts | 44° |
| 2026-04-23 16:18 | 57.80889 | 15.92898 | 39000 ft | 451 kts | 44° |
| 2026-04-23 16:19 | 57.83116 | 15.97044 | 38819 ft | 451 kts | 44° |
| 2026-04-23 16:19 | 57.85340 | 16.01193 | 38570 ft | 449 kts | 45° |
| 2026-04-23 16:19 | 57.87551 | 16.05326 | 38321 ft | 449 kts | 45° |
| 2026-04-23 16:19 | 57.89761 | 16.09464 | 38073 ft | 449 kts | 45° |
| 2026-04-23 16:20 | 57.91975 | 16.13616 | 37826 ft | 449 kts | 45° |
| 2026-04-23 16:20 | 57.94186 | 16.17770 | 37576 ft | 449 kts | 45° |
| 2026-04-23 16:20 | 57.96365 | 16.21872 | 37331 ft | 449 kts | 45° |
| 2026-04-23 16:20 | 57.98586 | 16.26007 | 37077 ft | 449 kts | 41° |
| 2026-04-23 16:21 | 58.01103 | 16.29605 | 36833 ft | 449 kts | 33° |
| 2026-04-23 16:21 | 58.03740 | 16.32751 | 36582 ft | 449 kts | 31° |
| 2026-04-23 16:21 | 58.06396 | 16.35857 | 36339 ft | 448 kts | 32° |
| 2026-04-23 16:21 | 58.09025 | 16.39020 | 36085 ft | 448 kts | 33° |
| 2026-04-23 16:22 | 58.11600 | 16.42212 | 35839 ft | 449 kts | 33° |
| 2026-04-23 16:22 | 58.14230 | 16.45537 | 35587 ft | 449 kts | 33° |
| 2026-04-23 16:22 | 58.16824 | 16.48852 | 35337 ft | 450 kts | 34° |
| 2026-04-23 16:22 | 58.19417 | 16.52180 | 35084 ft | 450 kts | 34° |
| 2026-04-23 16:23 | 58.22011 | 16.55517 | 34839 ft | 451 kts | 34° |
| 2026-04-23 16:23 | 58.24605 | 16.58858 | 34590 ft | 451 kts | 34° |
| 2026-04-23 16:23 | 58.27170 | 16.62168 | 34342 ft | 452 kts | 34° |
| 2026-04-23 16:23 | 58.29768 | 16.65525 | 34092 ft | 452 kts | 34° |
| 2026-04-23 16:24 | 58.32372 | 16.68896 | 33845 ft | 453 kts | 34° |
| 2026-04-23 16:24 | 58.34975 | 16.72271 | 33596 ft | 453 kts | 34° |
| 2026-04-23 16:24 | 58.37577 | 16.75652 | 33347 ft | 453 kts | 34° |
| 2026-04-23 16:24 | 58.40187 | 16.79048 | 33101 ft | 454 kts | 34° |
| 2026-04-23 16:25 | 58.42792 | 16.82444 | 32849 ft | 454 kts | 34° |
| 2026-04-23 16:25 | 58.45403 | 16.85854 | 32535 ft | 455 kts | 34° |
| 2026-04-23 16:25 | 58.48023 | 16.89282 | 31851 ft | 458 kts | 34° |
| 2026-04-23 16:25 | 58.50667 | 16.92749 | 30939 ft | 462 kts | 34° |
| 2026-04-23 16:26 | 58.53305 | 16.96213 | 30363 ft | 457 kts | 34° |
| 2026-04-23 16:26 | 58.55914 | 16.99647 | 29761 ft | 452 kts | 34° |
| 2026-04-23 16:26 | 58.58490 | 17.03043 | 29145 ft | 448 kts | 34° |
| 2026-04-23 16:26 | 58.61043 | 17.06415 | 28540 ft | 443 kts | 34° |
| 2026-04-23 16:27 | 58.63568 | 17.09756 | 27939 ft | 439 kts | 34° |
| 2026-04-23 16:27 | 58.66069 | 17.13072 | 27341 ft | 434 kts | 34° |
| 2026-04-23 16:27 | 58.68540 | 17.16353 | 26750 ft | 430 kts | 34° |
| 2026-04-23 16:27 | 58.70985 | 17.19604 | 26160 ft | 426 kts | 34° |
| 2026-04-23 16:28 | 58.73407 | 17.22832 | 25577 ft | 421 kts | 34° |
| 2026-04-23 16:28 | 58.75805 | 17.26033 | 24991 ft | 417 kts | 34° |
| 2026-04-23 16:28 | 58.78181 | 17.29209 | 24415 ft | 413 kts | 34° |
| 2026-04-23 16:28 | 58.80529 | 17.32354 | 23840 ft | 409 kts | 34° |
| 2026-04-23 16:29 | 58.82858 | 17.35477 | 23248 ft | 406 kts | 34° |
| 2026-04-23 16:29 | 58.85164 | 17.38576 | 22694 ft | 402 kts | 34° |
| 2026-04-23 16:29 | 58.87445 | 17.41646 | 22119 ft | 398 kts | 34° |
| 2026-04-23 16:29 | 58.89707 | 17.44701 | 21557 ft | 394 kts | 35° |
| 2026-04-23 16:30 | 58.91939 | 17.47759 | 20984 ft | 394 kts | 35° |
| 2026-04-23 16:30 | 58.94173 | 17.50829 | 20409 ft | 393 kts | 35° |
| 2026-04-23 16:30 | 58.96391 | 17.53880 | 19834 ft | 390 kts | 35° |
| 2026-04-23 16:30 | 58.98595 | 17.56917 | 19222 ft | 387 kts | 35° |
| 2026-04-23 16:31 | 59.00780 | 17.59930 | 18600 ft | 385 kts | 35° |
| 2026-04-23 16:31 | 59.02958 | 17.62939 | 17950 ft | 383 kts | 35° |
| 2026-04-23 16:31 | 59.05128 | 17.65938 | 17275 ft | 382 kts | 35° |
| 2026-04-23 16:31 | 59.07289 | 17.68930 | 16596 ft | 381 kts | 35° |
| 2026-04-23 16:32 | 59.09441 | 17.71913 | 15920 ft | 380 kts | 35° |
| 2026-04-23 16:32 | 59.11588 | 17.74893 | 15253 ft | 378 kts | 35° |
| 2026-04-23 16:32 | 59.13725 | 17.77862 | 14582 ft | 377 kts | 35° |
| 2026-04-23 16:32 | 59.15846 | 17.80813 | 13889 ft | 370 kts | 35° |
| 2026-04-23 16:33 | 59.17911 | 17.83689 | 13228 ft | 360 kts | 35° |
| 2026-04-23 16:33 | 59.19921 | 17.86495 | 12547 ft | 351 kts | 35° |
| 2026-04-23 16:33 | 59.22004 | 17.88849 | 11866 ft | 343 kts | 19° |
| 2026-04-23 16:33 | 59.24317 | 17.89610 | 11196 ft | 336 kts | 359° |
| 2026-04-23 16:34 | 59.26634 | 17.89467 | 10528 ft | 330 kts | 357° |
| 2026-04-23 16:34 | 59.28910 | 17.89293 | 9853 ft | 325 kts | 357° |
| 2026-04-23 16:34 | 59.31142 | 17.89122 | 9310 ft | 316 kts | 357° |
| 2026-04-23 16:34 | 59.33304 | 17.88852 | 8784 ft | 307 kts | 352° |
| 2026-04-23 16:35 | 59.35375 | 17.88092 | 8264 ft | 299 kts | 347° |
| 2026-04-23 16:35 | 59.37388 | 17.87256 | 7734 ft | 293 kts | 350° |
| 2026-04-23 16:35 | 59.39390 | 17.86814 | 7208 ft | 286 kts | 348° |
| 2026-04-23 16:35 | 59.41180 | 17.85306 | 6681 ft | 279 kts | 322° |
| 2026-04-23 16:36 | 59.42404 | 17.82458 | 6159 ft | 273 kts | 295° |
| 2026-04-23 16:36 | 59.42878 | 17.78906 | 5641 ft | 268 kts | 278° |
| 2026-04-23 16:36 | 59.43121 | 17.75347 | 5120 ft | 265 kts | 277° |
| 2026-04-23 16:36 | 59.43336 | 17.71785 | 4655 ft | 260 kts | 270° |
| 2026-04-23 16:37 | 59.42946 | 17.68413 | 4263 ft | 250 kts | 240° |
| 2026-04-23 16:37 | 59.41735 | 17.65958 | 4184 ft | 257 kts | 210° |
| 2026-04-23 16:37 | 59.40071 | 17.64982 | 4086 ft | 254 kts | 181° |
| 2026-04-23 16:37 | 59.38342 | 17.65767 | 4008 ft | 255 kts | 150° |
| 2026-04-23 16:38 | 59.37044 | 17.68072 | 4000 ft | 249 kts | 128° |
| 2026-04-23 16:38 | 59.36024 | 17.70688 | 4007 ft | 234 kts | 127° |
| 2026-04-23 16:38 | 59.35066 | 17.73158 | 4005 ft | 222 kts | 127° |
| 2026-04-23 16:38 | 59.34410 | 17.75852 | 4018 ft | 226 kts | 98° |
| 2026-04-23 16:39 | 59.34521 | 17.78889 | 3999 ft | 225 kts | 78° |
| 2026-04-23 16:39 | 59.34852 | 17.81889 | 4006 ft | 225 kts | 77° |
| 2026-04-23 16:39 | 59.35369 | 17.84755 | 4006 ft | 224 kts | 52° |
| 2026-04-23 16:39 | 59.36636 | 17.86424 | 4018 ft | 224 kts | 11° |
| 2026-04-23 16:40 | 59.38186 | 17.86701 | 4005 ft | 224 kts | 1° |
| 2026-04-23 16:40 | 59.39794 | 17.86947 | 4004 ft | 238 kts | 6° |
| 2026-04-23 16:40 | 59.41376 | 17.87417 | 3999 ft | 222 kts | 9° |
| 2026-04-23 16:40 | 59.42841 | 17.87950 | 3977 ft | 208 kts | 9° |
| 2026-04-23 16:41 | 59.44247 | 17.88451 | 3778 ft | 204 kts | 9° |
| 2026-04-23 16:41 | 59.45642 | 17.88951 | 3506 ft | 204 kts | 9° |
| 2026-04-23 16:41 | 59.47040 | 17.89453 | 3220 ft | 204 kts | 9° |
| 2026-04-23 16:41 | 59.48439 | 17.89955 | 2955 ft | 205 kts | 9° |
| 2026-04-23 16:42 | 59.49841 | 17.90458 | 2679 ft | 205 kts | 9° |
| 2026-04-23 16:42 | 59.51240 | 17.90962 | 2406 ft | 202 kts | 9° |
| 2026-04-23 16:42 | 59.52574 | 17.91442 | 2184 ft | 186 kts | 9° |
| 2026-04-23 16:42 | 59.53800 | 17.91884 | 1898 ft | 172 kts | 9° |
| 2026-04-23 16:43 | 59.54915 | 17.92287 | 1702 ft | 154 kts | 9° |
| 2026-04-23 16:43 | 59.55917 | 17.92647 | 1498 ft | 142 kts | 9° |
| 2026-04-23 16:43 | 59.56900 | 17.93001 | 1308 ft | 143 kts | 9° |
| 2026-04-23 16:43 | 59.57872 | 17.93352 | 1120 ft | 142 kts | 9° |
| 2026-04-23 16:44 | 59.58841 | 17.93702 | 932 ft | 142 kts | 9° |
| 2026-04-23 16:44 | 59.59809 | 17.94051 | 744 ft | 141 kts | 9° |
| 2026-04-23 16:44 | 59.60793 | 17.94400 | 580 ft | 146 kts | 9° |
| 2026-04-23 16:44 | 59.61777 | 17.94767 | 367 ft | 145 kts | 10° |
| 2026-04-23 16:45 | 59.62764 | 17.95132 | 181 ft | 143 kts | 10° |
| 2026-04-23 16:45 | 59.63672 | 17.95454 | 127 ft | 115 kts | 9° |
| 2026-04-23 16:45 | 59.64155 | 17.95628 | 119 ft | 41 kts | 10° |
| 2026-04-23 16:45 | 59.64412 | 17.95700 | 112 ft | 33 kts | 0° |
| 2026-04-23 16:46 | 59.64580 | 17.95640 | 110 ft | 3 kts | 342° |
| 2026-04-23 16:46 | 59.64630 | 17.95606 | 111 ft | 14 kts | 340° |
| 2026-04-23 16:46 | 59.64664 | 17.95579 | 111 ft | 0 kts | 338° |
| 2026-04-23 16:47 | 59.64683 | 17.95565 | 110 ft | 8 kts | 340° |
| 2026-04-23 16:47 | 59.64771 | 17.95501 | 109 ft | 19 kts | 339° |
| 2026-04-23 16:48 | 59.64922 | 17.95494 | 108 ft | 25 kts | 8° |
| 2026-04-23 16:48 | 59.65109 | 17.95477 | 110 ft | 27 kts | 345° |
| 2026-04-23 16:48 | 59.65269 | 17.95395 | 111 ft | 25 kts | 345° |
| 2026-04-23 16:48 | 59.65447 | 17.95302 | 113 ft | 28 kts | 345° |
| 2026-04-23 16:49 | 59.65579 | 17.95233 | 116 ft | 27 kts | 345° |
| 2026-04-23 16:49 | 59.65747 | 17.95020 | 121 ft | 23 kts | 264° |
| 2026-04-23 16:49 | 59.65706 | 17.94668 | 119 ft | 29 kts | 256° |
| 2026-04-23 16:49 | 59.65653 | 17.94257 | 118 ft | 29 kts | 256° |
| 2026-04-23 16:50 | 59.65609 | 17.93916 | 116 ft | 19 kts | 248° |
| 2026-04-23 16:50 | 59.65523 | 17.93890 | 115 ft | 14 kts | 167° |
| 2026-04-23 16:50 | 59.65417 | 17.93938 | 114 ft | 17 kts | 167° |
| 2026-04-23 16:50 | 59.65328 | 17.93929 | 113 ft | 0 kts | 224° |
| 2026-04-23 16:51 | 59.65322 | 17.93910 | 114 ft | 2 kts | 247° |
| 2026-04-23 16:51 | 59.65312 | 17.93847 | 114 ft | 5 kts | 254° |
| 2026-04-23 16:51 | 59.65312 | 17.93846 | 114 ft | 0 kts | 254° |